createdAt,value
2023-03-03T00:01:32.991Z,-1.19
2023-03-03T00:04:02.561Z,-1.13
2023-03-03T00:06:33.084Z,-1.00
2023-03-03T00:09:02.086Z,-1.05
2023-03-03T00:11:31.093Z,-0.94
2023-03-03T00:14:00.217Z,-1.02
2023-03-03T00:16:31.229Z,-0.96
2023-03-03T00:19:01.307Z,-1.05
2023-03-03T00:21:31.112Z,-1.02
2023-03-03T00:24:18.980Z,-0.97
2023-03-03T00:26:50.277Z,-1.01
2023-03-03T00:29:30.944Z,-1.14
2023-03-03T00:32:14.766Z,-1.10
2023-03-03T00:34:45.237Z,-1.16
2023-03-03T00:37:32.664Z,-1.31
2023-03-03T00:40:17.968Z,-1.23
2023-03-03T00:42:51.333Z,-1.26
2023-03-03T00:45:28.375Z,-1.21
2023-03-03T00:47:58.305Z,-1.39
2023-03-03T00:50:30.308Z,-1.43
2023-03-03T00:53:04.906Z,-1.22
2023-03-03T00:55:36.046Z,-1.30
2023-03-03T00:58:05.467Z,-1.46
2023-03-03T01:00:39.445Z,-1.10
2023-03-03T01:03:17.688Z,-1.24
2023-03-03T01:05:47.293Z,-1.34
2023-03-03T01:08:16.494Z,-1.29
2023-03-03T01:10:51.025Z,-1.12
2023-03-03T01:13:20.821Z,-1.09
2023-03-03T01:15:50.049Z,-1.12
2023-03-03T01:18:19.323Z,-1.22
2023-03-03T01:20:48.572Z,-1.14
2023-03-03T01:23:17.713Z,-1.19
2023-03-03T01:25:47.922Z,-1.17
2023-03-03T01:28:16.954Z,-1.19
2023-03-03T01:30:46.112Z,-1.14
2023-03-03T01:33:15.210Z,-1.45
2023-03-03T01:35:46.538Z,-1.31
2023-03-03T01:38:16.036Z,-1.26
2023-03-03T01:40:44.650Z,-1.24
2023-03-03T01:43:16.798Z,-1.23
2023-03-03T01:46:37.023Z,-1.29
2023-03-03T01:49:07.335Z,-1.33
2023-03-03T01:51:36.726Z,-1.21
2023-03-03T01:54:07.987Z,-1.36
2023-03-03T01:56:37.070Z,-1.39
2023-03-03T01:59:10.058Z,-1.42
2023-03-03T02:01:38.919Z,-1.48
2023-03-03T02:04:08.285Z,-1.41
2023-03-03T02:06:40.039Z,-1.39
2023-03-03T02:09:13.362Z,-1.38
2023-03-03T02:11:44.269Z,-1.46
2023-03-03T02:14:14.964Z,-1.40
2023-03-03T02:16:44.970Z,-1.36
2023-03-03T02:19:21.150Z,-1.30
2023-03-03T02:21:50.913Z,-1.38
2023-03-03T02:24:25.809Z,-1.36
2023-03-03T02:26:56.483Z,-1.60
2023-03-03T02:29:25.686Z,-1.53
2023-03-03T02:31:54.833Z,-1.57
2023-03-03T02:34:24.556Z,-1.67
2023-03-03T02:36:54.351Z,-1.49
2023-03-03T02:39:25.268Z,-1.44
2023-03-03T02:42:00.652Z,-1.25
2023-03-03T02:44:36.690Z,-1.26
2023-03-03T02:47:05.979Z,-1.57
2023-03-03T02:49:36.261Z,-1.57
2023-03-03T02:52:09.960Z,-1.91
2023-03-03T02:54:41.631Z,-2.04
2023-03-03T02:57:12.413Z,-1.93
2023-03-03T02:59:41.483Z,-2.07
2023-03-03T03:02:16.354Z,-2.11
2023-03-03T03:04:45.053Z,-1.96
2023-03-03T03:07:18.103Z,-2.01
2023-03-03T03:09:47.993Z,-2.15
2023-03-03T03:12:21.343Z,-2.02
2023-03-03T03:14:53.632Z,-2.01
2023-03-03T03:17:22.769Z,-1.90
2023-03-03T03:19:53.239Z,-2.02
2023-03-03T03:22:22.528Z,-2.18
2023-03-03T03:24:51.932Z,-2.39
2023-03-03T03:27:23.580Z,-2.23
2023-03-03T03:29:54.182Z,-1.93
2023-03-03T03:32:23.854Z,-1.96
2023-03-03T03:34:58.176Z,-1.93
2023-03-03T03:37:27.586Z,-1.78
2023-03-03T03:39:56.820Z,-1.91
2023-03-03T03:42:28.370Z,-1.79
2023-03-03T03:44:58.559Z,-1.96
2023-03-03T03:47:27.952Z,-1.63
2023-03-03T03:49:57.271Z,-1.83
2023-03-03T03:52:26.346Z,-1.93
2023-03-03T03:54:55.394Z,-1.64
2023-03-03T03:57:26.585Z,-1.74
2023-03-03T03:59:57.828Z,-1.63
2023-03-03T04:02:27.373Z,-1.58
2023-03-03T04:04:56.124Z,-1.55
2023-03-03T04:07:25.172Z,-1.55
2023-03-03T04:09:54.544Z,-1.98
2023-03-03T04:12:25.378Z,-1.83
2023-03-03T04:14:55.649Z,-1.81
2023-03-03T04:17:26.259Z,-2.10
2023-03-03T04:19:55.377Z,-1.90
2023-03-03T04:22:25.019Z,-2.03
2023-03-03T04:24:54.564Z,-1.99
2023-03-03T04:27:24.006Z,-2.39
2023-03-03T04:29:53.468Z,-2.20
2023-03-03T04:32:23.021Z,-2.32
2023-03-03T04:35:05.803Z,-2.41
2023-03-03T04:37:38.960Z,-2.40
2023-03-03T04:40:10.747Z,-2.23
2023-03-03T04:42:40.642Z,-2.37
2023-03-03T04:45:12.479Z,-2.14
2023-03-03T04:47:41.950Z,-2.61
2023-03-03T04:50:13.525Z,-2.67
2023-03-03T04:52:42.968Z,-2.83
2023-03-03T04:55:12.720Z,-2.69
2023-03-03T04:57:42.412Z,-2.49
2023-03-03T05:00:13.281Z,-2.56
2023-03-03T05:02:42.966Z,-2.58
2023-03-03T05:05:13.810Z,-2.52
2023-03-03T05:07:42.955Z,-2.49
2023-03-03T05:10:12.940Z,-2.39
2023-03-03T05:12:42.088Z,-2.60
2023-03-03T05:15:12.131Z,-2.84
2023-03-03T05:17:41.315Z,-2.42
2023-03-03T05:20:14.041Z,-2.27
2023-03-03T05:22:42.906Z,-2.48
2023-03-03T05:25:12.789Z,-2.76
2023-03-03T05:27:43.966Z,-2.18
2023-03-03T05:30:14.818Z,-2.13
2023-03-03T05:32:45.101Z,-2.21
2023-03-03T05:35:15.815Z,-2.01
2023-03-03T05:37:47.680Z,-1.86
2023-03-03T05:40:16.988Z,-1.96
2023-03-03T05:42:46.256Z,-2.07
2023-03-03T05:45:15.659Z,-2.22
2023-03-03T05:47:44.716Z,-2.36
2023-03-03T05:50:15.471Z,-2.08
2023-03-03T05:52:44.406Z,-2.51
2023-03-03T05:55:13.481Z,-2.12
2023-03-03T05:57:43.822Z,-1.85
2023-03-03T06:00:14.905Z,-1.76
2023-03-03T06:02:45.345Z,-1.80
2023-03-03T06:05:16.013Z,-1.76
2023-03-03T06:07:45.297Z,-1.75
2023-03-03T06:10:14.426Z,-1.82
2023-03-03T06:12:46.815Z,-1.41
2023-03-03T06:15:16.813Z,-1.62
2023-03-03T06:17:45.942Z,-1.64
2023-03-03T06:20:16.713Z,-1.42
2023-03-03T06:22:45.512Z,-1.39
2023-03-03T06:25:16.599Z,-1.48
2023-03-03T06:27:46.275Z,-1.39
2023-03-03T06:30:16.756Z,-1.96
2023-03-03T06:32:46.252Z,-1.79
2023-03-03T06:35:18.447Z,-1.76
2023-03-03T06:37:47.383Z,-1.29
2023-03-03T06:40:16.683Z,-1.11
2023-03-03T06:42:45.996Z,-1.03
2023-03-03T06:45:17.032Z,-0.95
2023-03-03T06:47:46.168Z,-1.63
2023-03-03T06:50:16.795Z,-1.58
2023-03-03T06:52:45.590Z,-1.84
2023-03-03T06:55:18.145Z,-1.63
2023-03-03T06:57:48.357Z,-1.30
2023-03-03T07:00:21.490Z,-1.58
2023-03-03T07:02:55.746Z,-1.34
2023-03-03T07:05:29.049Z,-1.24
2023-03-03T07:07:58.132Z,-1.26
2023-03-03T07:10:28.721Z,-1.23
2023-03-03T07:13:00.191Z,-1.00
2023-03-03T07:15:32.191Z,-0.96
2023-03-03T07:18:02.682Z,-0.86
2023-03-03T07:20:37.104Z,-0.80
2023-03-03T07:23:15.342Z,-1.16
2023-03-03T07:25:46.790Z,-0.99
2023-03-03T07:28:22.410Z,-0.62
2023-03-03T07:30:51.692Z,-1.01
2023-03-03T07:33:27.557Z,-1.41
2023-03-03T07:35:59.524Z,-1.24
2023-03-03T07:38:33.639Z,-1.14
2023-03-03T07:41:04.382Z,-1.09
2023-03-03T07:43:37.149Z,-1.09
2023-03-03T07:46:30.245Z,-1.22
2023-03-03T07:49:00.288Z,-1.18
2023-03-03T07:51:37.726Z,-1.17
2023-03-03T07:54:28.676Z,-1.17
2023-03-03T07:56:59.617Z,-0.72
2023-03-03T07:59:28.812Z,-1.45
2023-03-03T08:02:01.645Z,-1.12
2023-03-03T08:04:34.412Z,-0.83
2023-03-03T08:07:05.054Z,-0.82
2023-03-03T08:09:57.979Z,-0.40
2023-03-03T08:12:47.421Z,-0.53
2023-03-03T08:15:24.876Z,-0.73
2023-03-03T08:17:56.316Z,-0.88
2023-03-03T08:20:52.914Z,-1.03
2023-03-03T08:23:23.485Z,-1.14
2023-03-03T08:25:53.472Z,-1.05
2023-03-03T08:28:23.588Z,-0.51
2023-03-03T08:31:02.730Z,-0.58
2023-03-03T08:33:38.704Z,-0.99
2023-03-03T08:36:08.692Z,-0.71
2023-03-03T08:38:40.585Z,-0.96
2023-03-03T08:41:10.025Z,-0.72
2023-03-03T08:43:38.937Z,-0.62
2023-03-03T08:46:10.450Z,-0.57
2023-03-03T08:48:40.201Z,-1.08
2023-03-03T08:51:09.356Z,-0.90
2023-03-03T08:53:39.955Z,-0.63
2023-03-03T08:56:10.480Z,-0.06
2023-03-03T08:58:40.856Z,-0.23
2023-03-03T09:01:14.550Z,-0.32
2023-03-03T09:03:43.774Z,-0.14
2023-03-03T09:06:13.011Z,-0.54
2023-03-03T09:08:43.583Z,-0.87
2023-03-03T09:11:16.608Z,-1.01
2023-03-03T09:13:45.422Z,-0.61
2023-03-03T09:16:16.076Z,-0.87
2023-03-03T09:18:45.834Z,-0.36
2023-03-03T09:21:21.016Z,-0.58
2023-03-03T09:23:56.211Z,-0.47
2023-03-03T09:26:28.614Z,-0.30
2023-03-03T09:29:00.376Z,-0.77
2023-03-03T09:31:39.957Z,-0.34
2023-03-03T09:34:21.724Z,-0.84
2023-03-03T09:36:51.519Z,-0.54
2023-03-03T09:39:24.057Z,-0.54
2023-03-03T09:42:17.969Z,-0.24
2023-03-03T09:45:23.067Z,-0.44
2023-03-03T09:48:16.561Z,-0.45
2023-03-03T09:50:52.259Z,-1.23
2023-03-03T09:53:31.572Z,-1.22
2023-03-03T09:56:11.000Z,-0.48
2023-03-03T09:58:51.793Z,-0.72
2023-03-03T10:01:34.686Z,-0.73
2023-03-03T10:04:26.078Z,-1.05
2023-03-03T10:07:00.813Z,-1.07
2023-03-03T10:10:04.804Z,-1.23
2023-03-03T10:12:38.805Z,-0.81
2023-03-03T10:15:20.752Z,-0.28
2023-03-03T10:17:52.921Z,-0.67
2023-03-03T10:20:49.579Z,-0.91
2023-03-03T10:23:24.861Z,-0.68
2023-03-03T10:26:01.288Z,-0.70
2023-03-03T10:28:58.334Z,-0.65
2023-03-03T10:31:38.908Z,0.00
2023-03-03T10:34:18.892Z,-0.29
2023-03-03T10:36:53.982Z,-0.49
2023-03-03T10:39:39.919Z,-0.87
2023-03-03T10:42:21.232Z,-0.88
2023-03-03T10:45:00.809Z,-0.89
2023-03-03T10:47:55.827Z,-0.90
2023-03-03T10:50:29.543Z,-1.51
2023-03-03T10:53:09.480Z,-0.96
2023-03-03T10:55:44.081Z,-0.83
2023-03-03T10:58:34.364Z,-0.81
2023-03-03T11:01:06.382Z,-0.55
2023-03-03T11:03:55.024Z,-0.51
2023-03-03T11:06:27.357Z,-0.67
2023-03-03T11:08:58.778Z,-0.78
2023-03-03T11:11:34.869Z,-1.16
2023-03-03T11:14:10.784Z,-1.09
2023-03-03T11:16:49.682Z,-1.32
2023-03-03T11:19:35.881Z,-0.93
2023-03-03T11:22:14.732Z,-0.47
2023-03-03T11:24:56.676Z,-0.25
2023-03-03T11:27:40.092Z,-0.66
2023-03-03T11:30:35.694Z,-0.41
2023-03-03T11:33:09.535Z,-0.92
2023-03-03T11:35:44.824Z,-1.21
2023-03-03T11:38:26.346Z,-1.12
2023-03-03T11:40:58.297Z,-1.42
2023-03-03T11:43:37.155Z,-1.20
2023-03-03T11:46:09.751Z,-0.71
2023-03-03T11:48:45.458Z,-0.82
2023-03-03T11:51:17.414Z,-0.85
2023-03-03T11:54:01.129Z,-0.57
2023-03-03T11:56:35.584Z,-1.12
2023-03-03T11:59:19.433Z,-1.15
2023-03-03T12:01:54.100Z,-1.24
2023-03-03T12:04:30.971Z,-0.72
2023-03-03T12:07:19.031Z,-1.17
2023-03-03T12:09:57.176Z,-1.04
2023-03-03T12:12:29.435Z,-0.64
2023-03-03T12:15:08.643Z,-0.59
2023-03-03T12:17:50.751Z,-0.56
2023-03-03T12:20:26.056Z,-0.05
2023-03-03T12:23:07.174Z,-0.63
2023-03-03T12:25:38.682Z,-0.63
2023-03-03T12:28:10.753Z,-0.79
2023-03-03T12:31:14.136Z,-0.20
2023-03-03T12:34:02.416Z,-0.14
2023-03-03T12:36:52.373Z,-0.63
2023-03-03T12:39:35.352Z,-0.63
2023-03-03T12:42:10.659Z,-0.01
2023-03-03T12:44:45.582Z,0.11
2023-03-03T12:47:23.175Z,-0.10
2023-03-03T12:50:07.866Z,0.48
2023-03-03T12:52:46.542Z,-0.48
2023-03-03T12:55:20.664Z,-0.52
2023-03-03T12:57:55.765Z,-0.69
2023-03-03T13:00:30.893Z,-0.40
2023-03-03T13:03:05.057Z,-0.82
2023-03-03T13:05:46.133Z,-0.69
2023-03-03T13:08:34.869Z,-0.49
2023-03-03T13:11:15.712Z,-0.32
2023-03-03T13:13:51.855Z,-0.28
2023-03-03T13:16:38.921Z,-0.41
2023-03-03T13:19:11.689Z,-0.57
2023-03-03T13:21:43.784Z,-0.39
2023-03-03T13:24:20.564Z,-0.87
2023-03-03T13:26:52.341Z,-0.68
2023-03-03T13:29:26.833Z,-0.27
2023-03-03T13:31:57.852Z,-0.57
2023-03-03T13:34:38.783Z,-0.43
2023-03-03T13:37:14.440Z,-0.52
2023-03-03T13:39:55.368Z,-0.51
2023-03-03T13:42:27.716Z,-1.06
2023-03-03T13:44:58.081Z,-0.86
2023-03-03T13:47:30.626Z,-0.79
2023-03-03T13:50:16.813Z,-0.97
2023-03-03T13:52:52.813Z,-0.94
2023-03-03T13:55:31.308Z,-1.41
2023-03-03T13:58:10.376Z,-1.26
2023-03-03T14:00:54.123Z,-0.70
2023-03-03T14:03:43.547Z,-1.01
2023-03-03T14:06:16.172Z,-0.70
2023-03-03T14:09:02.629Z,-0.64
2023-03-03T14:11:37.645Z,-0.61
2023-03-03T14:14:13.887Z,-0.26
2023-03-03T14:16:51.826Z,-0.18
2023-03-03T14:19:26.612Z,-0.21
2023-03-03T14:22:09.992Z,0.35
2023-03-03T14:24:58.187Z,-0.58
2023-03-03T14:27:30.444Z,-0.62
2023-03-03T14:29:59.649Z,-0.46
2023-03-03T14:32:44.429Z,-0.66
2023-03-03T14:35:26.248Z,-0.90
2023-03-03T14:38:03.503Z,-0.95
2023-03-03T14:40:33.814Z,-0.89
2023-03-03T14:43:08.005Z,-0.88
2023-03-03T14:45:39.395Z,-0.57
2023-03-03T14:48:16.199Z,-0.74
2023-03-03T14:50:51.438Z,-1.22
2023-03-03T14:53:32.889Z,-0.82
2023-03-03T14:56:18.976Z,-0.68
2023-03-03T14:58:50.044Z,-0.83
2023-03-03T15:01:25.491Z,-0.80
2023-03-03T15:04:01.586Z,-0.29
2023-03-03T15:06:34.763Z,-0.89
2023-03-03T15:09:26.270Z,-0.93
2023-03-03T15:11:56.764Z,-1.17
2023-03-03T15:14:32.174Z,-1.05
2023-03-03T15:17:19.254Z,-0.85
2023-03-03T15:20:20.022Z,-1.07
2023-03-03T15:22:50.485Z,-0.98
2023-03-03T15:25:41.973Z,-0.70
2023-03-03T15:28:27.989Z,-0.88
2023-03-03T15:31:05.602Z,-0.98
2023-03-03T15:33:37.473Z,-0.96
2023-03-03T15:36:10.447Z,-0.59
2023-03-03T15:38:47.770Z,-0.48
2023-03-03T15:41:28.522Z,-1.28
2023-03-03T15:44:08.036Z,-0.77
2023-03-03T15:46:55.583Z,-0.75
2023-03-03T15:49:38.397Z,-0.60
2023-03-03T15:52:22.743Z,-0.53
2023-03-03T15:55:01.906Z,-0.75
2023-03-03T15:57:40.850Z,-1.02
2023-03-03T16:00:33.328Z,-1.16
2023-03-03T16:03:12.662Z,-1.16
2023-03-03T16:05:48.738Z,-0.50
2023-03-03T16:08:21.230Z,-0.64
2023-03-03T16:11:00.249Z,-0.62
2023-03-03T16:13:40.991Z,-0.81
2023-03-03T16:16:20.705Z,-0.67
2023-03-03T16:19:06.076Z,-0.76
2023-03-03T16:22:01.017Z,-0.64
2023-03-03T16:24:38.873Z,-0.72
2023-03-03T16:27:16.870Z,-0.48
2023-03-03T16:29:54.454Z,-0.28
2023-03-03T16:32:28.117Z,-0.25
2023-03-03T16:34:59.902Z,-0.34
2023-03-03T16:37:32.394Z,-0.56
2023-03-03T16:40:09.916Z,-0.80
2023-03-03T16:42:39.284Z,-1.17
2023-03-03T16:45:21.852Z,-1.08
2023-03-03T16:48:01.347Z,-0.94
2023-03-03T16:50:41.197Z,-1.04
2023-03-03T16:53:18.938Z,-0.72
2023-03-03T16:55:55.746Z,-1.30
2023-03-03T16:58:36.300Z,-0.97
2023-03-03T17:01:10.768Z,-1.17
2023-03-03T17:03:52.961Z,-1.11
2023-03-03T17:06:32.356Z,-0.98
2023-03-03T17:09:30.137Z,-1.24
2023-03-03T17:12:12.980Z,-0.83
2023-03-03T17:14:53.234Z,-1.03
2023-03-03T17:17:31.196Z,-1.25
2023-03-03T17:20:08.196Z,-1.03
2023-03-03T17:22:47.622Z,-0.79
2023-03-03T17:25:23.366Z,-0.58
2023-03-03T17:28:07.032Z,-0.77
2023-03-03T17:30:43.526Z,-1.04
2023-03-03T17:33:34.055Z,-1.17
2023-03-03T17:36:18.445Z,-1.24
2023-03-03T17:38:57.743Z,-1.59
2023-03-03T17:41:31.636Z,-1.16
2023-03-03T17:44:04.025Z,-1.21
2023-03-03T17:46:35.962Z,-1.10
2023-03-03T17:49:21.456Z,-0.51
2023-03-03T17:52:29.194Z,-0.68
2023-03-03T17:55:10.333Z,-0.99
2023-03-03T17:58:00.407Z,-1.41
2023-03-03T18:00:46.299Z,-1.21
2023-03-03T18:03:29.963Z,-0.89
2023-03-03T18:06:32.844Z,-0.78
2023-03-03T18:09:18.688Z,-0.80
2023-03-03T18:12:01.219Z,-0.90
2023-03-03T18:14:43.508Z,-1.45
2023-03-03T18:17:24.433Z,-1.57
2023-03-03T18:20:06.026Z,-1.39
2023-03-03T18:22:36.092Z,-1.27
2023-03-03T18:25:06.345Z,-0.92
2023-03-03T18:27:37.617Z,-0.62
2023-03-03T18:30:33.558Z,-0.63
2023-03-03T18:33:13.823Z,-0.10
2023-03-03T18:35:44.122Z,-0.68
2023-03-03T18:38:26.745Z,-0.55
2023-03-03T18:40:58.670Z,-1.26
2023-03-03T18:43:57.112Z,-1.35
2023-03-03T18:46:49.503Z,-0.87
2023-03-03T18:49:18.976Z,-1.11
2023-03-03T18:52:18.839Z,-0.81
2023-03-03T18:55:03.309Z,-0.90
2023-03-03T18:57:32.647Z,-0.95
2023-03-03T19:00:17.149Z,-0.89
2023-03-03T19:02:54.420Z,-1.08
2023-03-03T19:05:25.719Z,-0.89
2023-03-03T19:07:59.505Z,-1.22
2023-03-03T19:10:54.970Z,-0.51
2023-03-03T19:13:49.855Z,-0.99
2023-03-03T19:16:37.558Z,-0.88
2023-03-03T19:19:12.052Z,-1.00
2023-03-03T19:21:42.863Z,-1.34
2023-03-03T19:24:29.283Z,-1.28
2023-03-03T19:27:13.269Z,-0.83
2023-03-03T19:30:02.504Z,-0.46
2023-03-03T19:32:50.328Z,-0.95
2023-03-03T19:35:26.398Z,-0.92
2023-03-03T19:38:03.153Z,-1.05
2023-03-03T19:40:38.431Z,-0.90
2023-03-03T19:43:15.526Z,-0.45
2023-03-03T19:45:59.219Z,-0.70
2023-03-03T19:48:36.350Z,-0.61
2023-03-03T19:51:12.040Z,-0.62
2023-03-03T19:53:46.910Z,-1.02
2023-03-03T19:56:34.244Z,-0.98
2023-03-03T19:59:11.111Z,-1.07
2023-03-03T20:01:49.235Z,-1.15
2023-03-03T20:04:38.296Z,-0.82
2023-03-03T20:07:17.704Z,-0.97
2023-03-03T20:09:50.526Z,-0.86
2023-03-03T20:12:30.071Z,-0.47
2023-03-03T20:15:10.367Z,-0.67
2023-03-03T20:17:43.169Z,-0.51
2023-03-03T20:20:34.481Z,-0.84
2023-03-03T20:23:11.346Z,-0.73
2023-03-03T20:25:45.142Z,-0.57
2023-03-03T20:28:28.327Z,-0.51
2023-03-03T20:31:03.112Z,-0.98
2023-03-03T20:33:45.802Z,-0.55
2023-03-03T20:36:26.083Z,-0.54
2023-03-03T20:39:04.339Z,-0.69
2023-03-03T20:41:54.379Z,-0.56
2023-03-03T20:44:33.971Z,-0.37
2023-03-03T20:47:07.610Z,-0.76
2023-03-03T20:49:52.432Z,-0.28
2023-03-03T20:52:27.321Z,-0.64
2023-03-03T20:55:05.261Z,-0.47
2023-03-03T20:57:41.876Z,-0.33
2023-03-03T21:00:15.627Z,-0.65
2023-03-03T21:02:49.891Z,-0.86
2023-03-03T21:05:20.741Z,-0.72
2023-03-03T21:07:55.503Z,-0.17
2023-03-03T21:10:26.016Z,-0.51
2023-03-03T21:12:56.134Z,-0.48
2023-03-03T21:15:28.853Z,-0.58
2023-03-03T21:17:59.153Z,-0.08
2023-03-03T21:20:32.810Z,-0.06
2023-03-03T21:23:03.894Z,-0.35
2023-03-03T21:25:52.224Z,-0.05
2023-03-03T21:28:23.957Z,-0.47
2023-03-03T21:31:19.895Z,-0.18
2023-03-03T21:33:51.762Z,-0.15
2023-03-03T21:36:23.357Z,-0.56
2023-03-03T21:38:55.894Z,-0.59
2023-03-03T21:41:25.460Z,-0.41
2023-03-03T21:43:55.526Z,-0.11
2023-03-03T21:46:26.437Z,-0.02
2023-03-03T21:48:55.831Z,-0.08
2023-03-03T21:51:26.375Z,-0.20
2023-03-03T21:53:57.085Z,-0.08
2023-03-03T21:56:26.376Z,-0.32
2023-03-03T21:58:55.154Z,-0.29
2023-03-03T22:01:24.425Z,-0.52
2023-03-03T22:03:53.650Z,-0.82
2023-03-03T22:06:22.790Z,-0.43
2023-03-03T22:08:52.068Z,-0.04
2023-03-03T22:11:22.613Z,0.18
2023-03-03T22:13:51.008Z,-0.02
2023-03-03T22:16:20.404Z,0.31
2023-03-03T22:18:49.483Z,0.23
2023-03-03T22:21:18.739Z,-0.06
2023-03-03T22:23:47.928Z,-0.34
2023-03-03T22:26:16.987Z,-0.06
2023-03-03T22:28:47.247Z,-0.30
2023-03-03T22:31:16.451Z,-0.35
2023-03-03T22:33:45.824Z,-0.21
2023-03-03T22:36:15.964Z,-0.30
2023-03-03T22:38:44.926Z,0.06
2023-03-03T22:41:14.176Z,-0.14
2023-03-03T22:43:43.217Z,-0.30
2023-03-03T22:46:13.814Z,-0.38
2023-03-03T22:48:42.928Z,-0.38
2023-03-03T22:51:12.107Z,-0.10
2023-03-03T22:53:41.331Z,0.13
2023-03-03T22:56:13.254Z,0.31
2023-03-03T22:58:42.875Z,0.09
2023-03-03T23:01:13.445Z,-0.20
2023-03-03T23:03:43.925Z,0.03
2023-03-03T23:06:13.521Z,-0.26
2023-03-03T23:08:42.613Z,-0.32
2023-03-03T23:11:11.645Z,-0.09
2023-03-03T23:13:40.388Z,-0.13
2023-03-03T23:16:09.692Z,-0.11
2023-03-03T23:18:40.275Z,-0.36
2023-03-03T23:21:09.600Z,-0.28
2023-03-03T23:23:38.558Z,0.36
2023-03-03T23:26:07.617Z,-0.29
2023-03-03T23:28:36.302Z,-0.00
2023-03-03T23:31:05.677Z,0.10
2023-03-03T23:33:35.427Z,-0.42
2023-03-03T23:36:07.470Z,-0.09
2023-03-03T23:38:36.681Z,-0.06
2023-03-03T23:41:06.044Z,-0.63
2023-03-03T23:43:35.265Z,-0.20
2023-03-03T23:46:04.583Z,0.09
2023-03-03T23:48:33.723Z,-0.30
2023-03-03T23:51:03.446Z,0.05
2023-03-03T23:53:33.927Z,0.20
2023-03-03T23:56:02.927Z,-0.02
2023-03-03T23:58:31.633Z,0.34
